Crestview, FL (32539)

7:54 PM CDT on September 15, 2014 (GMT -0500)
Steeplechase | Change Station
CLOSE
Current Station
Personal Weather Station
Location: Crestview, FL
Elevation: 250 ft
Nearby Weather Stations

Elev 250 ft 30.73 °N, 86.56 °W | Updated 5 seconds ago

Clear
Clear
78.9 °F
Feels Like 83 °F
N
0.0
Wind Variable Wind from SW
Gusts 0.0 mph

Today
High -- | Low -- °F
--% Chance of Precip.
Yesterday
High -- | Low -- °F
Precip. -- in
6:30 AM 6:51 PM
Waning Gibbous, 50% visible
Pressure 30.06 in
Visibility 10.0 miles
Clouds Clear
Heat Index 83 °F
Dew Point 76 °F
Humidity 92%
Rainfall 0.29 in
Snow Depth Not available.
UV 0 out of 12
Pollen 8.30 out of 12
Ozone Good
PM2.5 Good
Flu Activity Not available.
METAR KCEW 152353Z AUTO 00000KT 10SM CLR 27/24 A3007 RMK AO2 SLP180 60002 T02720244 10322 20261 58000

More Conditions Fewer Conditions

Pressure 30.06 in
Visibility 10.0 miles
Clouds Clear
Heat Index 83 °F
Dew Point 76 °F
Humidity 92%
Rainfall 0.29 in
Snow Depth Not available.
UV 0 out of 12
Pollen 8.30 out of 12
Ozone Good
PM2.5 Good
Flu Activity Not available.
METAR KCEW 152353Z AUTO 00000KT 10SM CLR 27/24 A3007 RMK AO2 SLP180 60002 T02720244 10322 20261 58000

More Conditions Fewer Conditions

10-Day Weather Forecast

Almanac

Astronomy

Sep. 15, 2014 Rise Set
Actual Time 6:30 AM CDT 6:51 PM CDT
Civil Twilight 6:06 AM CDT 7:15 PM CDT
Nautical Twilight 5:38 AM CDT 7:44 PM CDT
Astronomical Twilight 5:09 AM CDT 8:12 PM CDT
Moon 11:57 PM CDT (9/15) 1:06 PM CDT (9/15)
Length of Visible Light 13h 09m
Length of Day
12h 21m
Tomorrow will be 1m 51s shorter.
Waning Gibbous, 50% of the Moon is Illuminated
Today
Waning Gibbous
Sep 15
Last Quarter
Sep 24
New
Oct 1
First Quarter
Oct 8
Full

Today's Extremes

State Highs State Lows

Community

WunderPhotos

Upload Photos

1,753,630 photos uploaded!

Nearby

Air Quality

  Air Quality AQ Index Pollutant
Yesterday Good
PM2.5
Yesterday Good
OZONE
Current Good
OZONE
Current Good
PM2.5
Monday Good
OZONE
Monday Good
PM2.5
Tuesday Good
OZONE
Tuesday Good
PM2.5

Snow Depth

Station Depth Elevation
No new snow has been reported.

Earthquake Activity

City Distance Mag. Time & Date
No recent earthquake activity has been reported nearby.
Minimum magnitude displayed is 2.5.

Coastal Water Temperatures

Place Temperature
No Stations Reporting

Nearby Weather Stations